sensor_id;sensor_type;location;lat;lon;timestamp;temperature;humidity
48728;DHT22;34527;45.618;5.130;2024-01-30T00:01:22;8.00;99.90
48728;DHT22;34527;45.618;5.130;2024-01-30T00:03:47;8.00;99.90
48728;DHT22;34527;45.618;5.130;2024-01-30T00:06:13;8.00;99.90
48728;DHT22;34527;45.618;5.130;2024-01-30T00:08:39;8.00;99.90
48728;DHT22;34527;45.618;5.130;2024-01-30T00:11:04;8.00;99.90
48728;DHT22;34527;45.618;5.130;2024-01-30T00:13:30;8.00;99.90
48728;DHT22;34527;45.618;5.130;2024-01-30T00:15:56;8.00;99.90
48728;DHT22;34527;45.618;5.130;2024-01-30T00:18:21;8.00;99.90
48728;DHT22;34527;45.618;5.130;2024-01-30T00:20:47;8.00;99.90
48728;DHT22;34527;45.618;5.130;2024-01-30T00:23:13;8.00;99.90
48728;DHT22;34527;45.618;5.130;2024-01-30T00:25:38;8.00;99.90
48728;DHT22;34527;45.618;5.130;2024-01-30T00:28:04;8.00;99.90
48728;DHT22;34527;45.618;5.130;2024-01-30T00:30:30;8.00;99.90
48728;DHT22;34527;45.618;5.130;2024-01-30T00:32:55;8.10;99.90
48728;DHT22;34527;45.618;5.130;2024-01-30T00:35:21;8.10;99.90
48728;DHT22;34527;45.618;5.130;2024-01-30T00:37:48;8.30;99.90
48728;DHT22;34527;45.618;5.130;2024-01-30T00:40:14;8.40;99.90
48728;DHT22;34527;45.618;5.130;2024-01-30T00:42:44;8.30;99.90
48728;DHT22;34527;45.618;5.130;2024-01-30T00:45:14;8.30;99.90
48728;DHT22;34527;45.618;5.130;2024-01-30T00:47:39;8.40;99.90
48728;DHT22;34527;45.618;5.130;2024-01-30T00:50:05;8.40;99.90
48728;DHT22;34527;45.618;5.130;2024-01-30T00:52:31;8.60;99.90
48728;DHT22;34527;45.618;5.130;2024-01-30T00:54:58;8.70;99.90
48728;DHT22;34527;45.618;5.130;2024-01-30T00:57:24;8.80;99.90
48728;DHT22;34527;45.618;5.130;2024-01-30T00:59:50;8.80;99.90
48728;DHT22;34527;45.618;5.130;2024-01-30T01:02:15;8.80;99.90
48728;DHT22;34527;45.618;5.130;2024-01-30T01:04:43;8.80;99.90
48728;DHT22;34527;45.618;5.130;2024-01-30T01:07:08;8.90;99.90
48728;DHT22;34527;45.618;5.130;2024-01-30T01:09:34;9.00;99.90
48728;DHT22;34527;45.618;5.130;2024-01-30T01:11:59;9.00;99.90
48728;DHT22;34527;45.618;5.130;2024-01-30T01:14:25;9.00;99.90
48728;DHT22;34527;45.618;5.130;2024-01-30T01:16:51;9.00;99.90
48728;DHT22;34527;45.618;5.130;2024-01-30T01:19:16;9.10;99.90
48728;DHT22;34527;45.618;5.130;2024-01-30T01:21:42;9.10;99.90
48728;DHT22;34527;45.618;5.130;2024-01-30T01:24:07;9.10;99.90
48728;DHT22;34527;45.618;5.130;2024-01-30T01:26:33;9.10;99.90
48728;DHT22;34527;45.618;5.130;2024-01-30T01:28:59;9.10;99.90
48728;DHT22;34527;45.618;5.130;2024-01-30T01:31:24;9.10;99.90
48728;DHT22;34527;45.618;5.130;2024-01-30T01:33:50;9.10;99.90
48728;DHT22;34527;45.618;5.130;2024-01-30T01:36:16;9.10;99.90
48728;DHT22;34527;45.618;5.130;2024-01-30T01:38:41;9.10;99.90
48728;DHT22;34527;45.618;5.130;2024-01-30T01:41:07;9.10;99.90
48728;DHT22;34527;45.618;5.130;2024-01-30T01:43:33;9.10;99.90
48728;DHT22;34527;45.618;5.130;2024-01-30T01:45:58;9.10;99.90
48728;DHT22;34527;45.618;5.130;2024-01-30T01:48:24;9.10;99.90
48728;DHT22;34527;45.618;5.130;2024-01-30T01:50:51;9.10;99.90
48728;DHT22;34527;45.618;5.130;2024-01-30T01:53:17;9.10;99.90
48728;DHT22;34527;45.618;5.130;2024-01-30T01:55:43;9.10;99.90
48728;DHT22;34527;45.618;5.130;2024-01-30T01:58:09;9.10;99.90
48728;DHT22;34527;45.618;5.130;2024-01-30T02:00:36;9.10;99.90
48728;DHT22;34527;45.618;5.130;2024-01-30T02:03:05;9.10;99.90
48728;DHT22;34527;45.618;5.130;2024-01-30T02:05:32;9.10;99.90
48728;DHT22;34527;45.618;5.130;2024-01-30T02:07:57;9.10;99.90
48728;DHT22;34527;45.618;5.130;2024-01-30T02:10:23;9.10;99.90
48728;DHT22;34527;45.618;5.130;2024-01-30T02:12:49;9.10;99.90
48728;DHT22;34527;45.618;5.130;2024-01-30T02:15:15;9.00;99.90
48728;DHT22;34527;45.618;5.130;2024-01-30T02:17:41;9.00;99.90
48728;DHT22;34527;45.618;5.130;2024-01-30T02:20:06;8.90;99.90
48728;DHT22;34527;45.618;5.130;2024-01-30T02:22:34;8.80;99.90
48728;DHT22;34527;45.618;5.130;2024-01-30T02:25:00;8.80;99.90
48728;DHT22;34527;45.618;5.130;2024-01-30T02:27:26;8.90;99.90
48728;DHT22;34527;45.618;5.130;2024-01-30T02:29:52;8.90;99.90
48728;DHT22;34527;45.618;5.130;2024-01-30T02:32:17;8.80;99.90
48728;DHT22;34527;45.618;5.130;2024-01-30T02:34:43;8.90;99.90
48728;DHT22;34527;45.618;5.130;2024-01-30T02:37:08;8.90;99.90
48728;DHT22;34527;45.618;5.130;2024-01-30T02:39:34;8.80;99.90
48728;DHT22;34527;45.618;5.130;2024-01-30T02:42:00;8.80;99.90
48728;DHT22;34527;45.618;5.130;2024-01-30T02:44:25;8.70;99.90
48728;DHT22;34527;45.618;5.130;2024-01-30T02:46:51;8.70;99.90
48728;DHT22;34527;45.618;5.130;2024-01-30T02:49:16;8.70;99.90
48728;DHT22;34527;45.618;5.130;2024-01-30T02:51:42;8.70;99.90
48728;DHT22;34527;45.618;5.130;2024-01-30T02:54:07;8.70;99.90
48728;DHT22;34527;45.618;5.130;2024-01-30T02:56:33;8.70;99.90
48728;DHT22;34527;45.618;5.130;2024-01-30T02:58:58;8.70;99.90
48728;DHT22;34527;45.618;5.130;2024-01-30T03:01:24;8.60;99.90
48728;DHT22;34527;45.618;5.130;2024-01-30T03:03:50;8.60;99.90
48728;DHT22;34527;45.618;5.130;2024-01-30T03:06:15;8.60;99.90
48728;DHT22;34527;45.618;5.130;2024-01-30T03:08:43;8.50;99.90
48728;DHT22;34527;45.618;5.130;2024-01-30T03:11:08;8.50;99.90
48728;DHT22;34527;45.618;5.130;2024-01-30T03:13:34;8.50;99.90
48728;DHT22;34527;45.618;5.130;2024-01-30T03:15:59;8.50;99.90
48728;DHT22;34527;45.618;5.130;2024-01-30T03:18:25;8.40;99.90
48728;DHT22;34527;45.618;5.130;2024-01-30T03:20:51;8.50;99.90
48728;DHT22;34527;45.618;5.130;2024-01-30T03:23:16;8.50;99.90
48728;DHT22;34527;45.618;5.130;2024-01-30T03:25:42;8.50;99.90
48728;DHT22;34527;45.618;5.130;2024-01-30T03:28:07;8.50;99.90
48728;DHT22;34527;45.618;5.130;2024-01-30T03:30:34;8.50;99.90
48728;DHT22;34527;45.618;5.130;2024-01-30T03:33:00;8.50;99.90
48728;DHT22;34527;45.618;5.130;2024-01-30T03:35:25;8.40;99.90
48728;DHT22;34527;45.618;5.130;2024-01-30T03:37:51;8.40;99.90
48728;DHT22;34527;45.618;5.130;2024-01-30T03:40:16;8.40;99.90
48728;DHT22;34527;45.618;5.130;2024-01-30T03:42:42;8.40;99.90
48728;DHT22;34527;45.618;5.130;2024-01-30T03:45:08;8.30;99.90
48728;DHT22;34527;45.618;5.130;2024-01-30T03:47:34;8.30;99.90
48728;DHT22;34527;45.618;5.130;2024-01-30T03:49:59;8.30;99.90
48728;DHT22;34527;45.618;5.130;2024-01-30T03:52:25;8.30;99.90
48728;DHT22;34527;45.618;5.130;2024-01-30T03:54:50;8.30;99.90
48728;DHT22;34527;45.618;5.130;2024-01-30T03:57:16;8.40;99.90
48728;DHT22;34527;45.618;5.130;2024-01-30T03:59:42;8.30;99.90
48728;DHT22;34527;45.618;5.130;2024-01-30T04:02:08;8.20;99.90
48728;DHT22;34527;45.618;5.130;2024-01-30T04:04:35;8.20;99.90
48728;DHT22;34527;45.618;5.130;2024-01-30T04:07:00;8.20;99.90
48728;DHT22;34527;45.618;5.130;2024-01-30T04:09:26;8.20;99.90
48728;DHT22;34527;45.618;5.130;2024-01-30T04:11:53;8.20;99.90
48728;DHT22;34527;45.618;5.130;2024-01-30T04:14:19;8.20;99.90
48728;DHT22;34527;45.618;5.130;2024-01-30T04:16:45;8.30;99.90
48728;DHT22;34527;45.618;5.130;2024-01-30T04:19:10;8.20;99.90
48728;DHT22;34527;45.618;5.130;2024-01-30T04:21:36;8.20;99.90
48728;DHT22;34527;45.618;5.130;2024-01-30T04:24:02;8.20;99.90
48728;DHT22;34527;45.618;5.130;2024-01-30T04:26:27;8.20;99.90
48728;DHT22;34527;45.618;5.130;2024-01-30T04:28:53;8.10;99.90
48728;DHT22;34527;45.618;5.130;2024-01-30T04:31:18;8.20;99.90
48728;DHT22;34527;45.618;5.130;2024-01-30T04:33:44;8.10;99.90
48728;DHT22;34527;45.618;5.130;2024-01-30T04:36:10;8.20;99.90
48728;DHT22;34527;45.618;5.130;2024-01-30T04:38:35;8.20;99.90
48728;DHT22;34527;45.618;5.130;2024-01-30T04:41:01;8.10;99.90
48728;DHT22;34527;45.618;5.130;2024-01-30T04:43:26;8.10;99.90
48728;DHT22;34527;45.618;5.130;2024-01-30T04:45:52;8.00;99.90
48728;DHT22;34527;45.618;5.130;2024-01-30T04:48:18;8.00;99.90
48728;DHT22;34527;45.618;5.130;2024-01-30T04:50:44;8.00;99.90
48728;DHT22;34527;45.618;5.130;2024-01-30T04:53:09;8.00;99.90
48728;DHT22;34527;45.618;5.130;2024-01-30T04:55:35;8.00;99.90
48728;DHT22;34527;45.618;5.130;2024-01-30T04:58:01;8.00;99.90
48728;DHT22;34527;45.618;5.130;2024-01-30T05:00:27;8.00;99.90
48728;DHT22;34527;45.618;5.130;2024-01-30T05:02:54;8.00;99.90
48728;DHT22;34527;45.618;5.130;2024-01-30T05:05:20;7.90;99.90
48728;DHT22;34527;45.618;5.130;2024-01-30T05:07:47;8.00;99.90
48728;DHT22;34527;45.618;5.130;2024-01-30T05:10:13;8.00;99.90
48728;DHT22;34527;45.618;5.130;2024-01-30T05:12:39;7.90;99.90
48728;DHT22;34527;45.618;5.130;2024-01-30T05:15:05;7.90;99.90
48728;DHT22;34527;45.618;5.130;2024-01-30T05:17:31;7.90;99.90
48728;DHT22;34527;45.618;5.130;2024-01-30T05:19:56;7.80;99.90
48728;DHT22;34527;45.618;5.130;2024-01-30T05:22:22;7.80;99.90
48728;DHT22;34527;45.618;5.130;2024-01-30T05:24:47;7.70;99.90
48728;DHT22;34527;45.618;5.130;2024-01-30T05:27:13;7.70;99.90
48728;DHT22;34527;45.618;5.130;2024-01-30T05:29:39;7.60;99.90
48728;DHT22;34527;45.618;5.130;2024-01-30T05:32:06;7.50;99.90
48728;DHT22;34527;45.618;5.130;2024-01-30T05:34:32;7.50;99.90
48728;DHT22;34527;45.618;5.130;2024-01-30T05:36:58;7.40;99.90
48728;DHT22;34527;45.618;5.130;2024-01-30T05:39:23;7.20;99.90
48728;DHT22;34527;45.618;5.130;2024-01-30T05:41:49;7.20;99.90
48728;DHT22;34527;45.618;5.130;2024-01-30T05:44:15;7.30;99.90
48728;DHT22;34527;45.618;5.130;2024-01-30T05:46:41;7.30;99.90
48728;DHT22;34527;45.618;5.130;2024-01-30T05:49:06;7.30;99.90
48728;DHT22;34527;45.618;5.130;2024-01-30T05:51:32;7.20;99.90
48728;DHT22;34527;45.618;5.130;2024-01-30T05:53:57;7.20;99.90
48728;DHT22;34527;45.618;5.130;2024-01-30T05:56:23;7.20;99.90
48728;DHT22;34527;45.618;5.130;2024-01-30T05:58:49;7.10;99.90
48728;DHT22;34527;45.618;5.130;2024-01-30T06:01:16;7.10;99.90
48728;DHT22;34527;45.618;5.130;2024-01-30T06:03:41;7.20;99.90
48728;DHT22;34527;45.618;5.130;2024-01-30T06:06:08;7.10;99.90
48728;DHT22;34527;45.618;5.130;2024-01-30T06:08:34;7.10;99.90
48728;DHT22;34527;45.618;5.130;2024-01-30T06:11:00;7.10;99.90
48728;DHT22;34527;45.618;5.130;2024-01-30T06:13:26;7.10;99.90
48728;DHT22;34527;45.618;5.130;2024-01-30T06:15:52;7.10;99.90
48728;DHT22;34527;45.618;5.130;2024-01-30T06:18:17;7.10;99.90
48728;DHT22;34527;45.618;5.130;2024-01-30T06:20:43;7.10;99.90
48728;DHT22;34527;45.618;5.130;2024-01-30T06:23:09;7.00;99.90
48728;DHT22;34527;45.618;5.130;2024-01-30T06:25:34;7.00;99.90
48728;DHT22;34527;45.618;5.130;2024-01-30T06:28:00;6.90;99.90
48728;DHT22;34527;45.618;5.130;2024-01-30T06:30:25;6.80;99.90
48728;DHT22;34527;45.618;5.130;2024-01-30T06:32:51;6.80;99.90
48728;DHT22;34527;45.618;5.130;2024-01-30T06:35:17;6.70;99.90
48728;DHT22;34527;45.618;5.130;2024-01-30T06:37:43;6.70;99.90
48728;DHT22;34527;45.618;5.130;2024-01-30T06:40:09;6.70;99.90
48728;DHT22;34527;45.618;5.130;2024-01-30T06:42:34;6.70;99.90
48728;DHT22;34527;45.618;5.130;2024-01-30T06:45:00;6.70;99.90
48728;DHT22;34527;45.618;5.130;2024-01-30T06:47:26;6.70;99.90
48728;DHT22;34527;45.618;5.130;2024-01-30T06:49:51;6.70;99.90
48728;DHT22;34527;45.618;5.130;2024-01-30T06:52:17;6.70;99.90
48728;DHT22;34527;45.618;5.130;2024-01-30T06:54:42;6.70;99.90
48728;DHT22;34527;45.618;5.130;2024-01-30T06:57:08;6.70;99.90
48728;DHT22;34527;45.618;5.130;2024-01-30T06:59:37;6.70;99.90
48728;DHT22;34527;45.618;5.130;2024-01-30T07:02:09;6.70;99.90
48728;DHT22;34527;45.618;5.130;2024-01-30T07:04:35;6.70;99.90
48728;DHT22;34527;45.618;5.130;2024-01-30T07:07:02;6.70;99.90
48728;DHT22;34527;45.618;5.130;2024-01-30T07:09:30;6.70;99.90
48728;DHT22;34527;45.618;5.130;2024-01-30T07:11:56;6.80;99.90
48728;DHT22;34527;45.618;5.130;2024-01-30T07:14:23;6.80;99.90
48728;DHT22;34527;45.618;5.130;2024-01-30T07:16:49;6.80;99.90
48728;DHT22;34527;45.618;5.130;2024-01-30T07:19:15;6.80;99.90
48728;DHT22;34527;45.618;5.130;2024-01-30T07:21:41;6.80;99.90
48728;DHT22;34527;45.618;5.130;2024-01-30T07:24:06;6.70;99.90
48728;DHT22;34527;45.618;5.130;2024-01-30T07:26:32;6.80;99.90
48728;DHT22;34527;45.618;5.130;2024-01-30T07:28:58;6.80;99.90
48728;DHT22;34527;45.618;5.130;2024-01-30T07:31:23;6.90;99.90
48728;DHT22;34527;45.618;5.130;2024-01-30T07:33:49;6.90;99.90
48728;DHT22;34527;45.618;5.130;2024-01-30T07:36:14;7.00;99.90
48728;DHT22;34527;45.618;5.130;2024-01-30T07:38:40;7.00;99.90
48728;DHT22;34527;45.618;5.130;2024-01-30T07:41:06;7.00;99.90
48728;DHT22;34527;45.618;5.130;2024-01-30T07:43:31;7.10;99.90
48728;DHT22;34527;45.618;5.130;2024-01-30T07:45:58;7.10;99.90
48728;DHT22;34527;45.618;5.130;2024-01-30T07:48:23;7.10;99.90
48728;DHT22;34527;45.618;5.130;2024-01-30T07:50:49;7.10;99.90
48728;DHT22;34527;45.618;5.130;2024-01-30T07:53:14;7.10;99.90
48728;DHT22;34527;45.618;5.130;2024-01-30T07:55:52;7.20;99.90
48728;DHT22;34527;45.618;5.130;2024-01-30T07:58:18;7.30;99.90
48728;DHT22;34527;45.618;5.130;2024-01-30T08:00:44;7.30;99.90
48728;DHT22;34527;45.618;5.130;2024-01-30T08:03:10;7.40;99.90
48728;DHT22;34527;45.618;5.130;2024-01-30T08:05:36;7.40;99.90
48728;DHT22;34527;45.618;5.130;2024-01-30T08:08:01;7.40;99.90
48728;DHT22;34527;45.618;5.130;2024-01-30T08:10:27;7.50;99.90
48728;DHT22;34527;45.618;5.130;2024-01-30T08:12:52;7.50;99.90
48728;DHT22;34527;45.618;5.130;2024-01-30T08:15:18;7.50;99.90
48728;DHT22;34527;45.618;5.130;2024-01-30T08:17:43;7.50;99.90
48728;DHT22;34527;45.618;5.130;2024-01-30T08:20:10;7.50;99.90
48728;DHT22;34527;45.618;5.130;2024-01-30T08:22:38;7.60;99.90
48728;DHT22;34527;45.618;5.130;2024-01-30T08:25:05;7.60;99.90
48728;DHT22;34527;45.618;5.130;2024-01-30T08:27:31;7.60;99.90
48728;DHT22;34527;45.618;5.130;2024-01-30T08:29:56;7.70;99.90
48728;DHT22;34527;45.618;5.130;2024-01-30T08:32:22;7.80;99.90
48728;DHT22;34527;45.618;5.130;2024-01-30T08:34:49;7.80;99.90
48728;DHT22;34527;45.618;5.130;2024-01-30T08:37:14;7.90;99.90
48728;DHT22;34527;45.618;5.130;2024-01-30T08:39:42;8.00;99.90
48728;DHT22;34527;45.618;5.130;2024-01-30T08:42:08;8.10;99.90
48728;DHT22;34527;45.618;5.130;2024-01-30T08:44:34;8.40;99.90
48728;DHT22;34527;45.618;5.130;2024-01-30T08:46:59;8.50;99.90
48728;DHT22;34527;45.618;5.130;2024-01-30T08:49:25;8.60;99.90
48728;DHT22;34527;45.618;5.130;2024-01-30T08:51:50;8.80;99.90
48728;DHT22;34527;45.618;5.130;2024-01-30T08:54:16;8.90;99.90
48728;DHT22;34527;45.618;5.130;2024-01-30T08:56:42;9.10;99.90
48728;DHT22;34527;45.618;5.130;2024-01-30T08:59:08;9.20;99.90
48728;DHT22;34527;45.618;5.130;2024-01-30T09:01:34;9.40;99.90
48728;DHT22;34527;45.618;5.130;2024-01-30T09:03:59;9.60;99.90
48728;DHT22;34527;45.618;5.130;2024-01-30T09:06:25;9.70;99.90
48728;DHT22;34527;45.618;5.130;2024-01-30T09:08:53;9.80;99.90
48728;DHT22;34527;45.618;5.130;2024-01-30T09:11:19;9.80;99.90
48728;DHT22;34527;45.618;5.130;2024-01-30T09:13:45;10.00;99.90
48728;DHT22;34527;45.618;5.130;2024-01-30T09:16:10;10.10;99.90
48728;DHT22;34527;45.618;5.130;2024-01-30T09:18:36;10.20;99.90
48728;DHT22;34527;45.618;5.130;2024-01-30T09:21:01;10.20;99.90
48728;DHT22;34527;45.618;5.130;2024-01-30T09:23:27;10.20;99.90
48728;DHT22;34527;45.618;5.130;2024-01-30T09:25:53;10.20;99.90
48728;DHT22;34527;45.618;5.130;2024-01-30T09:28:19;10.30;99.90
48728;DHT22;34527;45.618;5.130;2024-01-30T09:30:44;10.30;99.90
48728;DHT22;34527;45.618;5.130;2024-01-30T09:33:10;10.40;99.90
48728;DHT22;34527;45.618;5.130;2024-01-30T09:35:39;10.40;99.90
48728;DHT22;34527;45.618;5.130;2024-01-30T09:38:04;10.50;99.90
48728;DHT22;34527;45.618;5.130;2024-01-30T09:40:30;10.50;99.90
48728;DHT22;34527;45.618;5.130;2024-01-30T09:42:56;10.50;99.90
48728;DHT22;34527;45.618;5.130;2024-01-30T09:45:25;10.50;99.90
48728;DHT22;34527;45.618;5.130;2024-01-30T09:47:52;10.60;99.90
48728;DHT22;34527;45.618;5.130;2024-01-30T09:50:18;10.60;99.90
48728;DHT22;34527;45.618;5.130;2024-01-30T09:52:45;10.70;99.90
48728;DHT22;34527;45.618;5.130;2024-01-30T09:55:11;10.70;99.90
48728;DHT22;34527;45.618;5.130;2024-01-30T09:57:37;10.70;99.90
48728;DHT22;34527;45.618;5.130;2024-01-30T10:00:04;10.80;99.90
48728;DHT22;34527;45.618;5.130;2024-01-30T10:02:31;10.80;99.90
48728;DHT22;34527;45.618;5.130;2024-01-30T10:04:57;10.90;99.90
48728;DHT22;34527;45.618;5.130;2024-01-30T10:07:23;10.90;99.90
48728;DHT22;34527;45.618;5.130;2024-01-30T10:09:48;10.90;99.90
48728;DHT22;34527;45.618;5.130;2024-01-30T10:12:15;10.90;99.90
48728;DHT22;34527;45.618;5.130;2024-01-30T10:14:41;10.90;99.90
48728;DHT22;34527;45.618;5.130;2024-01-30T10:17:11;11.00;99.90
48728;DHT22;34527;45.618;5.130;2024-01-30T10:19:40;11.00;99.90
48728;DHT22;34527;45.618;5.130;2024-01-30T10:22:06;11.10;99.90
48728;DHT22;34527;45.618;5.130;2024-01-30T10:24:35;11.20;99.90
48728;DHT22;34527;45.618;5.130;2024-01-30T10:27:01;11.30;99.90
48728;DHT22;34527;45.618;5.130;2024-01-30T10:29:27;11.40;99.90
48728;DHT22;34527;45.618;5.130;2024-01-30T10:32:04;11.50;99.90
48728;DHT22;34527;45.618;5.130;2024-01-30T10:34:30;11.60;99.90
48728;DHT22;34527;45.618;5.130;2024-01-30T10:37:03;11.70;99.90
48728;DHT22;34527;45.618;5.130;2024-01-30T10:39:32;11.90;99.90
48728;DHT22;34527;45.618;5.130;2024-01-30T10:42:04;11.90;99.90
48728;DHT22;34527;45.618;5.130;2024-01-30T10:44:36;12.00;99.90
48728;DHT22;34527;45.618;5.130;2024-01-30T10:47:06;12.00;99.90
48728;DHT22;34527;45.618;5.130;2024-01-30T10:49:35;12.00;99.90
48728;DHT22;34527;45.618;5.130;2024-01-30T10:52:03;12.00;99.90
48728;DHT22;34527;45.618;5.130;2024-01-30T10:54:30;12.10;99.90
48728;DHT22;34527;45.618;5.130;2024-01-30T10:56:58;12.10;99.90
48728;DHT22;34527;45.618;5.130;2024-01-30T10:59:25;12.10;99.90
48728;DHT22;34527;45.618;5.130;2024-01-30T11:01:51;12.10;99.90
48728;DHT22;34527;45.618;5.130;2024-01-30T11:04:17;12.10;99.90
48728;DHT22;34527;45.618;5.130;2024-01-30T11:06:42;12.10;99.90
48728;DHT22;34527;45.618;5.130;2024-01-30T11:09:11;12.20;99.90
48728;DHT22;34527;45.618;5.130;2024-01-30T11:11:51;12.10;99.90
48728;DHT22;34527;45.618;5.130;2024-01-30T11:14:23;12.20;99.90
48728;DHT22;34527;45.618;5.130;2024-01-30T11:16:49;12.30;99.90
48728;DHT22;34527;45.618;5.130;2024-01-30T11:19:14;12.30;99.90
48728;DHT22;34527;45.618;5.130;2024-01-30T11:21:42;12.40;99.90
48728;DHT22;34527;45.618;5.130;2024-01-30T11:24:08;12.30;99.90
48728;DHT22;34527;45.618;5.130;2024-01-30T11:26:33;12.40;99.90
48728;DHT22;34527;45.618;5.130;2024-01-30T11:29:03;12.40;99.90
48728;DHT22;34527;45.618;5.130;2024-01-30T11:31:29;12.40;99.90
48728;DHT22;34527;45.618;5.130;2024-01-30T11:33:56;12.40;99.90
48728;DHT22;34527;45.618;5.130;2024-01-30T11:36:25;12.50;99.90
48728;DHT22;34527;45.618;5.130;2024-01-30T11:38:52;12.60;99.90
48728;DHT22;34527;45.618;5.130;2024-01-30T11:41:18;12.60;99.90
48728;DHT22;34527;45.618;5.130;2024-01-30T11:43:51;12.70;99.90
48728;DHT22;34527;45.618;5.130;2024-01-30T11:46:17;12.60;99.90
48728;DHT22;34527;45.618;5.130;2024-01-30T11:48:42;12.70;99.90
48728;DHT22;34527;45.618;5.130;2024-01-30T11:51:08;12.60;99.90
48728;DHT22;34527;45.618;5.130;2024-01-30T11:53:34;12.60;99.90
48728;DHT22;34527;45.618;5.130;2024-01-30T11:55:59;12.70;99.90
48728;DHT22;34527;45.618;5.130;2024-01-30T11:58:25;12.70;99.90
48728;DHT22;34527;45.618;5.130;2024-01-30T12:00:58;12.80;99.90
48728;DHT22;34527;45.618;5.130;2024-01-30T12:03:24;12.80;99.90
48728;DHT22;34527;45.618;5.130;2024-01-30T12:05:56;12.90;99.90
48728;DHT22;34527;45.618;5.130;2024-01-30T12:08:23;12.90;99.90
48728;DHT22;34527;45.618;5.130;2024-01-30T12:10:56;12.90;99.90
48728;DHT22;34527;45.618;5.130;2024-01-30T12:13:23;12.80;99.90
48728;DHT22;34527;45.618;5.130;2024-01-30T12:15:48;12.80;99.90
48728;DHT22;34527;45.618;5.130;2024-01-30T12:18:18;12.80;99.90
48728;DHT22;34527;45.618;5.130;2024-01-30T12:20:43;12.80;99.90
48728;DHT22;34527;45.618;5.130;2024-01-30T12:23:09;12.80;99.90
48728;DHT22;34527;45.618;5.130;2024-01-30T12:25:37;13.00;99.90
48728;DHT22;34527;45.618;5.130;2024-01-30T12:28:03;13.00;99.90
48728;DHT22;34527;45.618;5.130;2024-01-30T12:30:29;13.10;99.90
48728;DHT22;34527;45.618;5.130;2024-01-30T12:32:55;13.10;99.90
48728;DHT22;34527;45.618;5.130;2024-01-30T12:35:20;13.20;99.90
48728;DHT22;34527;45.618;5.130;2024-01-30T12:37:48;13.20;99.90
48728;DHT22;34527;45.618;5.130;2024-01-30T12:40:14;13.30;99.90
48728;DHT22;34527;45.618;5.130;2024-01-30T12:42:43;13.30;99.90
48728;DHT22;34527;45.618;5.130;2024-01-30T12:45:14;13.30;99.90
48728;DHT22;34527;45.618;5.130;2024-01-30T12:47:41;13.30;99.90
48728;DHT22;34527;45.618;5.130;2024-01-30T12:50:07;13.40;99.90
48728;DHT22;34527;45.618;5.130;2024-01-30T12:52:32;13.40;99.90
48728;DHT22;34527;45.618;5.130;2024-01-30T12:54:58;13.40;99.90
48728;DHT22;34527;45.618;5.130;2024-01-30T12:57:24;13.50;99.90
48728;DHT22;34527;45.618;5.130;2024-01-30T12:59:49;13.50;99.90
48728;DHT22;34527;45.618;5.130;2024-01-30T13:02:15;13.50;99.90
48728;DHT22;34527;45.618;5.130;2024-01-30T13:04:42;13.50;99.90
48728;DHT22;34527;45.618;5.130;2024-01-30T13:07:08;13.50;99.90
48728;DHT22;34527;45.618;5.130;2024-01-30T13:09:33;13.50;99.90
48728;DHT22;34527;45.618;5.130;2024-01-30T13:11:59;13.50;99.90
48728;DHT22;34527;45.618;5.130;2024-01-30T13:14:26;13.50;99.90
48728;DHT22;34527;45.618;5.130;2024-01-30T13:16:51;13.60;99.90
48728;DHT22;34527;45.618;5.130;2024-01-30T13:19:17;13.70;99.90
48728;DHT22;34527;45.618;5.130;2024-01-30T13:21:43;13.80;99.90
48728;DHT22;34527;45.618;5.130;2024-01-30T13:24:09;13.80;99.90
48728;DHT22;34527;45.618;5.130;2024-01-30T13:26:35;13.80;99.90
48728;DHT22;34527;45.618;5.130;2024-01-30T13:29:00;13.80;99.90
48728;DHT22;34527;45.618;5.130;2024-01-30T13:31:26;13.90;99.90
48728;DHT22;34527;45.618;5.130;2024-01-30T13:33:53;13.90;99.90
48728;DHT22;34527;45.618;5.130;2024-01-30T13:36:18;13.90;99.90
48728;DHT22;34527;45.618;5.130;2024-01-30T13:38:44;13.90;99.90
48728;DHT22;34527;45.618;5.130;2024-01-30T13:41:10;14.00;99.90
48728;DHT22;34527;45.618;5.130;2024-01-30T13:43:35;14.00;99.90
48728;DHT22;34527;45.618;5.130;2024-01-30T13:46:01;13.90;99.90
48728;DHT22;34527;45.618;5.130;2024-01-30T13:48:26;14.00;99.90
48728;DHT22;34527;45.618;5.130;2024-01-30T13:50:53;14.00;99.90
48728;DHT22;34527;45.618;5.130;2024-01-30T13:53:19;13.90;99.90
48728;DHT22;34527;45.618;5.130;2024-01-30T13:55:44;13.80;99.90
48728;DHT22;34527;45.618;5.130;2024-01-30T13:58:10;13.80;99.90
48728;DHT22;34527;45.618;5.130;2024-01-30T14:00:36;13.80;99.90
48728;DHT22;34527;45.618;5.130;2024-01-30T14:03:01;13.70;99.90
48728;DHT22;34527;45.618;5.130;2024-01-30T14:05:27;13.70;99.90
48728;DHT22;34527;45.618;5.130;2024-01-30T14:07:53;13.80;99.90
48728;DHT22;34527;45.618;5.130;2024-01-30T14:10:19;13.80;99.90
48728;DHT22;34527;45.618;5.130;2024-01-30T14:12:45;13.80;99.90
48728;DHT22;34527;45.618;5.130;2024-01-30T14:15:12;13.80;99.90
48728;DHT22;34527;45.618;5.130;2024-01-30T14:17:38;13.70;99.90
48728;DHT22;34527;45.618;5.130;2024-01-30T14:20:04;13.70;99.90
48728;DHT22;34527;45.618;5.130;2024-01-30T14:22:30;13.70;99.90
48728;DHT22;34527;45.618;5.130;2024-01-30T14:24:56;13.60;99.90
48728;DHT22;34527;45.618;5.130;2024-01-30T14:27:22;13.60;99.90
48728;DHT22;34527;45.618;5.130;2024-01-30T14:29:48;13.50;99.90
48728;DHT22;34527;45.618;5.130;2024-01-30T14:32:13;13.50;99.90
48728;DHT22;34527;45.618;5.130;2024-01-30T14:34:39;13.50;99.90
48728;DHT22;34527;45.618;5.130;2024-01-30T14:37:05;13.40;99.90
48728;DHT22;34527;45.618;5.130;2024-01-30T14:39:30;13.40;99.90
48728;DHT22;34527;45.618;5.130;2024-01-30T14:41:57;13.30;99.90
48728;DHT22;34527;45.618;5.130;2024-01-30T14:44:22;13.30;99.90
48728;DHT22;34527;45.618;5.130;2024-01-30T14:46:48;13.30;99.90
48728;DHT22;34527;45.618;5.130;2024-01-30T14:49:14;13.30;99.90
48728;DHT22;34527;45.618;5.130;2024-01-30T14:51:41;13.30;99.90
48728;DHT22;34527;45.618;5.130;2024-01-30T14:54:06;13.30;99.90
48728;DHT22;34527;45.618;5.130;2024-01-30T14:56:32;13.30;99.90
48728;DHT22;34527;45.618;5.130;2024-01-30T14:58:58;13.30;99.90
48728;DHT22;34527;45.618;5.130;2024-01-30T15:01:24;13.30;99.90
48728;DHT22;34527;45.618;5.130;2024-01-30T15:03:49;13.30;99.90
48728;DHT22;34527;45.618;5.130;2024-01-30T15:06:17;13.30;99.90
48728;DHT22;34527;45.618;5.130;2024-01-30T15:08:43;13.30;99.90
48728;DHT22;34527;45.618;5.130;2024-01-30T15:11:09;13.30;99.90
48728;DHT22;34527;45.618;5.130;2024-01-30T15:13:34;13.30;99.90
48728;DHT22;34527;45.618;5.130;2024-01-30T15:16:00;13.20;99.90
48728;DHT22;34527;45.618;5.130;2024-01-30T15:18:28;13.20;99.90
48728;DHT22;34527;45.618;5.130;2024-01-30T15:20:54;13.20;99.90
48728;DHT22;34527;45.618;5.130;2024-01-30T15:23:19;13.20;99.90
48728;DHT22;34527;45.618;5.130;2024-01-30T15:25:45;13.20;99.90
48728;DHT22;34527;45.618;5.130;2024-01-30T15:28:11;13.10;99.90
48728;DHT22;34527;45.618;5.130;2024-01-30T15:30:36;13.10;99.90
48728;DHT22;34527;45.618;5.130;2024-01-30T15:33:02;13.00;99.90